SCO17CS EGPH-EGGD
Flight info
| Callsign | SCO17CS |
|---|---|
| Flight time | 0h 58m |
| Altitude | 25000 |
| Route | GOSAM P600 FENIK L612 NAVSO DCT ADZOP DCT EGTOC DCT NOKIN N862 KARNO DCT ALHUP DCT LUCSA N862 WEVBE |
| Aircraft | A319/M-SDE3FGHIRWY/LB1 |
Departure
| Time | 2026-04-25 21:52 |
|---|---|
| Airport | Edinburgh Airport (EGPH) |
Arrival
| Time | 2026-04-25 22:51 |
|---|---|
| Airport | Bristol Airport (EGGD) |
| Time | Latitude | Longitude | Altitude | Speed | Heading |
|---|---|---|---|---|---|
| 2026-04-25 21:34 | 55.94904 | -3.36495 | 116 ft | 0 kts | 148° |
| 2026-04-25 21:44 | 55.94906 | -3.36496 | 116 ft | 1 kts | 148° |
| 2026-04-25 21:44 | 55.94937 | -3.36530 | 115 ft | 3 kts | 148° |
| 2026-04-25 21:45 | 55.94952 | -3.36546 | 112 ft | 1 kts | 148° |
| 2026-04-25 21:45 | 55.94954 | -3.36548 | 112 ft | 0 kts | 148° |
| 2026-04-25 21:47 | 55.94952 | -3.36546 | 112 ft | 1 kts | 146° |
| 2026-04-25 21:47 | 55.94960 | -3.36524 | 115 ft | 5 kts | 54° |
| 2026-04-25 21:47 | 55.94995 | -3.36453 | 112 ft | 9 kts | 47° |
| 2026-04-25 21:47 | 55.95045 | -3.36392 | 113 ft | 10 kts | 5° |
| 2026-04-25 21:48 | 55.95061 | -3.36495 | 114 ft | 12 kts | 243° |
| 2026-04-25 21:48 | 55.95016 | -3.36631 | 113 ft | 13 kts | 239° |
| 2026-04-25 21:48 | 55.94967 | -3.36777 | 115 ft | 14 kts | 239° |
| 2026-04-25 21:48 | 55.94913 | -3.36933 | 115 ft | 15 kts | 238° |
| 2026-04-25 21:49 | 55.94855 | -3.37102 | 115 ft | 16 kts | 238° |
| 2026-04-25 21:49 | 55.94794 | -3.37281 | 116 ft | 17 kts | 239° |
| 2026-04-25 21:49 | 55.94731 | -3.37470 | 115 ft | 18 kts | 239° |
| 2026-04-25 21:49 | 55.94664 | -3.37669 | 116 ft | 19 kts | 239° |
| 2026-04-25 21:50 | 55.94593 | -3.37878 | 116 ft | 20 kts | 239° |
| 2026-04-25 21:50 | 55.94519 | -3.38097 | 114 ft | 21 kts | 238° |
| 2026-04-25 21:50 | 55.94441 | -3.38327 | 113 ft | 22 kts | 239° |
| 2026-04-25 21:50 | 55.94361 | -3.38564 | 114 ft | 23 kts | 239° |
| 2026-04-25 21:51 | 55.94284 | -3.38792 | 116 ft | 16 kts | 244° |
| 2026-04-25 21:51 | 55.94340 | -3.38922 | 115 ft | 15 kts | 328° |
| 2026-04-25 21:51 | 55.94432 | -3.38919 | 114 ft | 15 kts | 48° |
| 2026-04-25 21:51 | 55.94521 | -3.38661 | 112 ft | 54 kts | 58° |
| 2026-04-25 21:52 | 55.94856 | -3.37678 | 114 ft | 128 kts | 59° |
| 2026-04-25 21:52 | 55.95380 | -3.36155 | 497 ft | 151 kts | 58° |
| 2026-04-25 21:52 | 55.95966 | -3.34499 | 1052 ft | 168 kts | 56° |
| 2026-04-25 21:52 | 55.96856 | -3.32918 | 1491 ft | 193 kts | 45° |
| 2026-04-25 21:53 | 55.97918 | -3.31188 | 1988 ft | 219 kts | 45° |
| 2026-04-25 21:53 | 55.99115 | -3.29265 | 2573 ft | 244 kts | 42° |
| 2026-04-25 21:53 | 56.00688 | -3.27938 | 3333 ft | 261 kts | 6° |
| 2026-04-25 21:53 | 56.02467 | -3.28519 | 4251 ft | 264 kts | 328° |
| 2026-04-25 21:54 | 56.03714 | -3.30837 | 5276 ft | 263 kts | 294° |
| 2026-04-25 21:54 | 56.04055 | -3.34027 | 5775 ft | 263 kts | 264° |
| 2026-04-25 21:54 | 56.03638 | -3.37188 | 5945 ft | 263 kts | 250° |
| 2026-04-25 21:54 | 56.02951 | -3.40235 | 6799 ft | 265 kts | 246° |
| 2026-04-25 21:55 | 56.02245 | -3.43302 | 7768 ft | 268 kts | 248° |
| 2026-04-25 21:55 | 56.01593 | -3.46452 | 8707 ft | 272 kts | 250° |
| 2026-04-25 21:55 | 56.01007 | -3.49693 | 9654 ft | 276 kts | 251° |
| 2026-04-25 21:55 | 56.00467 | -3.53018 | 10508 ft | 284 kts | 253° |
| 2026-04-25 21:56 | 55.99929 | -3.56569 | 10845 ft | 307 kts | 254° |
| 2026-04-25 21:56 | 55.99568 | -3.59052 | 11230 ft | 316 kts | 254° |
| 2026-04-25 21:56 | 55.98835 | -3.64209 | 12287 ft | 323 kts | 254° |
| 2026-04-25 21:56 | 55.98282 | -3.68128 | 13116 ft | 327 kts | 254° |
| 2026-04-25 21:57 | 55.97721 | -3.72094 | 13931 ft | 332 kts | 254° |
| 2026-04-25 21:57 | 55.97151 | -3.76105 | 14655 ft | 335 kts | 254° |
| 2026-04-25 21:57 | 55.96572 | -3.80152 | 15384 ft | 338 kts | 255° |
| 2026-04-25 21:57 | 55.95980 | -3.84243 | 16114 ft | 341 kts | 255° |
| 2026-04-25 21:58 | 55.95379 | -3.88354 | 16849 ft | 344 kts | 255° |
| 2026-04-25 21:58 | 55.95174 | -3.89755 | 17102 ft | 345 kts | 255° |
| 2026-04-25 21:58 | 55.94228 | -3.96200 | 18242 ft | 349 kts | 254° |
| 2026-04-25 21:58 | 55.93302 | -4.00206 | 18934 ft | 352 kts | 240° |
| 2026-04-25 21:59 | 55.91845 | -4.03724 | 19566 ft | 355 kts | 227° |
| 2026-04-25 21:59 | 55.89932 | -4.06541 | 20188 ft | 360 kts | 216° |
| 2026-04-25 21:59 | 55.87856 | -4.09069 | 20817 ft | 363 kts | 216° |
| 2026-04-25 22:00 | 55.83655 | -4.14201 | 22051 ft | 369 kts | 216° |
| 2026-04-25 22:00 | 55.81531 | -4.16794 | 22658 ft | 372 kts | 216° |
| 2026-04-25 22:00 | 55.79387 | -4.19412 | 23253 ft | 376 kts | 216° |
| 2026-04-25 22:00 | 55.77212 | -4.22021 | 23845 ft | 380 kts | 213° |
| 2026-04-25 22:01 | 55.74810 | -4.24040 | 24324 ft | 386 kts | 201° |
| 2026-04-25 22:01 | 55.72179 | -4.25102 | 24802 ft | 392 kts | 188° |
| 2026-04-25 22:01 | 55.69430 | -4.25110 | 25166 ft | 399 kts | 176° |
| 2026-04-25 22:01 | 55.67620 | -4.24511 | 25245 ft | 401 kts | 167° |
| 2026-04-25 22:02 | 55.64204 | -4.22012 | 25283 ft | 395 kts | 153° |
| 2026-04-25 22:02 | 55.57927 | -4.15470 | 25023 ft | 391 kts | 153° |
| 2026-04-25 22:03 | 55.55550 | -4.13158 | 25168 ft | 391 kts | 155° |
| 2026-04-25 22:03 | 55.53142 | -4.10924 | 25246 ft | 392 kts | 155° |
| 2026-04-25 22:03 | 55.50717 | -4.08709 | 25263 ft | 392 kts | 156° |
| 2026-04-25 22:03 | 55.48295 | -4.06501 | 25264 ft | 392 kts | 155° |
| 2026-04-25 22:04 | 55.45892 | -4.04227 | 25268 ft | 392 kts | 154° |
| 2026-04-25 22:04 | 55.43501 | -4.01900 | 25268 ft | 393 kts | 154° |
| 2026-04-25 22:04 | 55.41113 | -3.99554 | 25272 ft | 394 kts | 154° |
| 2026-04-25 22:04 | 55.38721 | -3.97209 | 25274 ft | 394 kts | 154° |
| 2026-04-25 22:05 | 55.36327 | -3.94874 | 25271 ft | 394 kts | 154° |
| 2026-04-25 22:05 | 55.33930 | -3.92544 | 25272 ft | 394 kts | 154° |
| 2026-04-25 22:05 | 55.31530 | -3.90223 | 25271 ft | 394 kts | 154° |
| 2026-04-25 22:05 | 55.29131 | -3.87917 | 25271 ft | 394 kts | 154° |
| 2026-04-25 22:06 | 55.26724 | -3.85612 | 25271 ft | 394 kts | 154° |
| 2026-04-25 22:06 | 55.24322 | -3.83312 | 25269 ft | 394 kts | 154° |
| 2026-04-25 22:06 | 55.21874 | -3.81195 | 25267 ft | 392 kts | 161° |
| 2026-04-25 22:06 | 55.19291 | -3.79701 | 25253 ft | 390 kts | 165° |
| 2026-04-25 22:07 | 55.16696 | -3.78279 | 25254 ft | 391 kts | 165° |
| 2026-04-25 22:07 | 55.14982 | -3.77338 | 25255 ft | 391 kts | 165° |
| 2026-04-25 22:07 | 55.11504 | -3.75433 | 25258 ft | 391 kts | 165° |
| 2026-04-25 22:07 | 55.08909 | -3.74014 | 25257 ft | 392 kts | 165° |
| 2026-04-25 22:08 | 55.06304 | -3.72590 | 25261 ft | 392 kts | 165° |
| 2026-04-25 22:08 | 55.03706 | -3.71171 | 25263 ft | 392 kts | 165° |
| 2026-04-25 22:08 | 55.01104 | -3.69752 | 25264 ft | 391 kts | 165° |
| 2026-04-25 22:08 | 54.98505 | -3.68343 | 25261 ft | 391 kts | 165° |
| 2026-04-25 22:09 | 54.95906 | -3.66935 | 25258 ft | 391 kts | 165° |
| 2026-04-25 22:09 | 54.93306 | -3.65525 | 25249 ft | 391 kts | 165° |
| 2026-04-25 22:09 | 54.90740 | -3.64133 | 25249 ft | 391 kts | 165° |
| 2026-04-25 22:09 | 54.88142 | -3.62724 | 25245 ft | 392 kts | 165° |
| 2026-04-25 22:10 | 54.85542 | -3.61310 | 25249 ft | 392 kts | 165° |
| 2026-04-25 22:10 | 54.82923 | -3.59893 | 25265 ft | 399 kts | 165° |
| 2026-04-25 22:10 | 54.80250 | -3.58457 | 25266 ft | 404 kts | 165° |
| 2026-04-25 22:10 | 54.77557 | -3.57009 | 25262 ft | 405 kts | 165° |
| 2026-04-25 22:11 | 54.74862 | -3.55560 | 25264 ft | 406 kts | 165° |
| 2026-04-25 22:11 | 54.72167 | -3.54112 | 25261 ft | 406 kts | 165° |
| 2026-04-25 22:11 | 54.69461 | -3.52662 | 25251 ft | 412 kts | 165° |
| 2026-04-25 22:11 | 54.66697 | -3.51188 | 25257 ft | 418 kts | 165° |
| 2026-04-25 22:12 | 54.63913 | -3.49701 | 25259 ft | 419 kts | 165° |
| 2026-04-25 22:12 | 54.61131 | -3.48211 | 25258 ft | 419 kts | 165° |
| 2026-04-25 22:12 | 54.58342 | -3.46717 | 25261 ft | 420 kts | 165° |
| 2026-04-25 22:12 | 54.56495 | -3.45731 | 25258 ft | 420 kts | 165° |
| 2026-04-25 22:13 | 54.52768 | -3.43745 | 25257 ft | 420 kts | 165° |
| 2026-04-25 22:13 | 54.49975 | -3.42265 | 25256 ft | 420 kts | 165° |
| 2026-04-25 22:13 | 54.47182 | -3.40787 | 25260 ft | 420 kts | 165° |
| 2026-04-25 22:13 | 54.44388 | -3.39311 | 25253 ft | 425 kts | 166° |
| 2026-04-25 22:14 | 54.41541 | -3.37812 | 25264 ft | 431 kts | 166° |
| 2026-04-25 22:14 | 54.38666 | -3.36297 | 25261 ft | 432 kts | 165° |
| 2026-04-25 22:14 | 54.35790 | -3.34781 | 25254 ft | 433 kts | 165° |
| 2026-04-25 22:14 | 54.32909 | -3.33264 | 25262 ft | 433 kts | 165° |
| 2026-04-25 22:15 | 54.30030 | -3.31746 | 25261 ft | 433 kts | 165° |
| 2026-04-25 22:15 | 54.27151 | -3.30231 | 25261 ft | 433 kts | 166° |
| 2026-04-25 22:15 | 54.24270 | -3.28723 | 25261 ft | 433 kts | 166° |
| 2026-04-25 22:16 | 54.18504 | -3.25797 | 25239 ft | 431 kts | 170° |
| 2026-04-25 22:16 | 54.15561 | -3.24817 | 25240 ft | 431 kts | 172° |
| 2026-04-25 22:16 | 54.12608 | -3.23947 | 25245 ft | 430 kts | 173° |
| 2026-04-25 22:16 | 54.09649 | -3.23140 | 25243 ft | 430 kts | 174° |
| 2026-04-25 22:17 | 54.06693 | -3.22351 | 25243 ft | 430 kts | 174° |
| 2026-04-25 22:17 | 54.03727 | -3.21557 | 25241 ft | 431 kts | 173° |
| 2026-04-25 22:17 | 54.00768 | -3.20748 | 25247 ft | 431 kts | 173° |
| 2026-04-25 22:17 | 53.97811 | -3.19919 | 25239 ft | 431 kts | 173° |
| 2026-04-25 22:18 | 53.94858 | -3.19077 | 25234 ft | 431 kts | 173° |
| 2026-04-25 22:18 | 53.91900 | -3.18228 | 25233 ft | 431 kts | 173° |
| 2026-04-25 22:18 | 53.88947 | -3.17382 | 25236 ft | 431 kts | 173° |
| 2026-04-25 22:18 | 53.85991 | -3.16538 | 25233 ft | 431 kts | 173° |
| 2026-04-25 22:19 | 53.83036 | -3.15699 | 25234 ft | 431 kts | 173° |
| 2026-04-25 22:19 | 53.80078 | -3.14862 | 25238 ft | 431 kts | 173° |
| 2026-04-25 22:19 | 53.77123 | -3.14026 | 25240 ft | 431 kts | 173° |
| 2026-04-25 22:19 | 53.74166 | -3.13189 | 25239 ft | 431 kts | 173° |
| 2026-04-25 22:20 | 53.71210 | -3.12350 | 25239 ft | 431 kts | 173° |
| 2026-04-25 22:20 | 53.68253 | -3.11517 | 25208 ft | 431 kts | 173° |
| 2026-04-25 22:20 | 53.65289 | -3.10688 | 25206 ft | 432 kts | 173° |
| 2026-04-25 22:20 | 53.62318 | -3.09861 | 25216 ft | 433 kts | 173° |
| 2026-04-25 22:21 | 53.59340 | -3.09034 | 25219 ft | 434 kts | 173° |
| 2026-04-25 22:21 | 53.56396 | -3.08220 | 25216 ft | 435 kts | 173° |
| 2026-04-25 22:21 | 53.53369 | -3.07384 | 25216 ft | 435 kts | 173° |
| 2026-04-25 22:21 | 53.50384 | -3.06557 | 25222 ft | 435 kts | 173° |
| 2026-04-25 22:22 | 53.47394 | -3.05727 | 25228 ft | 436 kts | 173° |
| 2026-04-25 22:22 | 53.44447 | -3.04907 | 25229 ft | 436 kts | 173° |
| 2026-04-25 22:22 | 53.41412 | -3.04064 | 25235 ft | 436 kts | 173° |
| 2026-04-25 22:22 | 53.38458 | -3.03241 | 25236 ft | 436 kts | 173° |
| 2026-04-25 22:23 | 53.35464 | -3.02405 | 25234 ft | 436 kts | 173° |
| 2026-04-25 22:23 | 53.32472 | -3.01575 | 25236 ft | 436 kts | 173° |
| 2026-04-25 22:23 | 53.29480 | -3.00752 | 25237 ft | 436 kts | 173° |
| 2026-04-25 22:23 | 53.26486 | -2.99930 | 25239 ft | 436 kts | 173° |
| 2026-04-25 22:24 | 53.23494 | -2.99111 | 25241 ft | 436 kts | 173° |
| 2026-04-25 22:24 | 53.20498 | -2.98289 | 25235 ft | 436 kts | 173° |
| 2026-04-25 22:24 | 53.17506 | -2.97464 | 25234 ft | 436 kts | 173° |
| 2026-04-25 22:24 | 53.14517 | -2.96643 | 25235 ft | 436 kts | 173° |
| 2026-04-25 22:25 | 53.11522 | -2.95824 | 25233 ft | 436 kts | 173° |
| 2026-04-25 22:25 | 53.08527 | -2.95006 | 25232 ft | 436 kts | 173° |
| 2026-04-25 22:25 | 53.05532 | -2.94192 | 25232 ft | 436 kts | 173° |
| 2026-04-25 22:25 | 53.02538 | -2.93380 | 25232 ft | 436 kts | 173° |
| 2026-04-25 22:26 | 52.99544 | -2.92568 | 25233 ft | 436 kts | 173° |
| 2026-04-25 22:26 | 52.96550 | -2.91759 | 25219 ft | 436 kts | 173° |
| 2026-04-25 22:26 | 52.93552 | -2.90948 | 25222 ft | 436 kts | 173° |
| 2026-04-25 22:26 | 52.90559 | -2.90209 | 25218 ft | 435 kts | 178° |
| 2026-04-25 22:27 | 52.87551 | -2.90280 | 25221 ft | 431 kts | 189° |
| 2026-04-25 22:27 | 52.84584 | -2.90974 | 25223 ft | 430 kts | 191° |
| 2026-04-25 22:27 | 52.81621 | -2.91679 | 25223 ft | 430 kts | 191° |
| 2026-04-25 22:27 | 52.78659 | -2.92379 | 25224 ft | 431 kts | 191° |
| 2026-04-25 22:28 | 52.75695 | -2.93074 | 25223 ft | 431 kts | 191° |
| 2026-04-25 22:28 | 52.73725 | -2.93534 | 25224 ft | 431 kts | 191° |
| 2026-04-25 22:28 | 52.70752 | -2.94155 | 25216 ft | 432 kts | 186° |
| 2026-04-25 22:28 | 52.67749 | -2.94401 | 25220 ft | 432 kts | 185° |
| 2026-04-25 22:29 | 52.64748 | -2.94643 | 24998 ft | 429 kts | 185° |
| 2026-04-25 22:29 | 52.61783 | -2.94890 | 24552 ft | 426 kts | 185° |
| 2026-04-25 22:29 | 52.58820 | -2.95141 | 24320 ft | 426 kts | 185° |
| 2026-04-25 22:30 | 52.52914 | -2.95636 | 23401 ft | 422 kts | 185° |
| 2026-04-25 22:30 | 52.50005 | -2.95870 | 22882 ft | 418 kts | 185° |
| 2026-04-25 22:30 | 52.47105 | -2.96105 | 22341 ft | 415 kts | 185° |
| 2026-04-25 22:30 | 52.45203 | -2.96262 | 22012 ft | 412 kts | 185° |
| 2026-04-25 22:31 | 52.41388 | -2.96577 | 21330 ft | 408 kts | 185° |
| 2026-04-25 22:31 | 52.38560 | -2.96811 | 20824 ft | 405 kts | 185° |
| 2026-04-25 22:31 | 52.35757 | -2.97046 | 20323 ft | 403 kts | 185° |
| 2026-04-25 22:31 | 52.32966 | -2.97275 | 19827 ft | 399 kts | 185° |
| 2026-04-25 22:32 | 52.30201 | -2.97496 | 19337 ft | 396 kts | 185° |
| 2026-04-25 22:32 | 52.27461 | -2.97715 | 18850 ft | 393 kts | 185° |
| 2026-04-25 22:32 | 52.24740 | -2.97932 | 18343 ft | 390 kts | 185° |
| 2026-04-25 22:32 | 52.22044 | -2.98149 | 17849 ft | 386 kts | 185° |
| 2026-04-25 22:33 | 52.19375 | -2.98367 | 17384 ft | 383 kts | 185° |
| 2026-04-25 22:33 | 52.16721 | -2.98584 | 16924 ft | 380 kts | 185° |
| 2026-04-25 22:33 | 52.14092 | -2.98799 | 16479 ft | 377 kts | 184° |
| 2026-04-25 22:33 | 52.11479 | -2.99013 | 16229 ft | 376 kts | 184° |
| 2026-04-25 22:34 | 52.08869 | -2.99229 | 16136 ft | 376 kts | 184° |
| 2026-04-25 22:34 | 52.06298 | -2.99438 | 15921 ft | 361 kts | 184° |
| 2026-04-25 22:34 | 52.03850 | -2.99633 | 15798 ft | 343 kts | 184° |
| 2026-04-25 22:34 | 52.01557 | -2.99815 | 15644 ft | 328 kts | 184° |
| 2026-04-25 22:35 | 51.99302 | -2.99991 | 15488 ft | 323 kts | 184° |
| 2026-04-25 22:35 | 51.97055 | -3.00171 | 15371 ft | 323 kts | 184° |
| 2026-04-25 22:35 | 51.94814 | -2.99929 | 15270 ft | 324 kts | 170° |
| 2026-04-25 22:35 | 51.92654 | -2.98862 | 15296 ft | 326 kts | 160° |
| 2026-04-25 22:36 | 51.90529 | -2.97580 | 15306 ft | 326 kts | 161° |
| 2026-04-25 22:36 | 51.88406 | -2.96307 | 15306 ft | 326 kts | 161° |
| 2026-04-25 22:36 | 51.86278 | -2.95034 | 15311 ft | 326 kts | 161° |
| 2026-04-25 22:36 | 51.84153 | -2.93763 | 15323 ft | 325 kts | 161° |
| 2026-04-25 22:37 | 51.82027 | -2.92489 | 14758 ft | 329 kts | 161° |
| 2026-04-25 22:37 | 51.79891 | -2.91211 | 14284 ft | 323 kts | 161° |
| 2026-04-25 22:37 | 51.77797 | -2.89962 | 13789 ft | 318 kts | 160° |
| 2026-04-25 22:37 | 51.75732 | -2.88737 | 13222 ft | 315 kts | 160° |
| 2026-04-25 22:38 | 51.73663 | -2.87510 | 12649 ft | 312 kts | 160° |
| 2026-04-25 22:38 | 51.71628 | -2.86542 | 12148 ft | 306 kts | 172° |
| 2026-04-25 22:38 | 51.69573 | -2.86457 | 11987 ft | 289 kts | 187° |
| 2026-04-25 22:38 | 51.67613 | -2.86925 | 11601 ft | 282 kts | 189° |
| 2026-04-25 22:39 | 51.65683 | -2.87423 | 11144 ft | 279 kts | 192° |
| 2026-04-25 22:39 | 51.63912 | -2.88619 | 10592 ft | 278 kts | 218° |
| 2026-04-25 22:39 | 51.62650 | -2.90947 | 10024 ft | 278 kts | 238° |
| 2026-04-25 22:39 | 51.61655 | -2.93609 | 9409 ft | 278 kts | 240° |
| 2026-04-25 22:40 | 51.60688 | -2.96290 | 8905 ft | 275 kts | 240° |
| 2026-04-25 22:40 | 51.59738 | -2.98925 | 8434 ft | 270 kts | 240° |
| 2026-04-25 22:40 | 51.58804 | -3.01515 | 7938 ft | 267 kts | 240° |
| 2026-04-25 22:40 | 51.57874 | -3.04080 | 7441 ft | 264 kts | 240° |
| 2026-04-25 22:41 | 51.56952 | -3.06618 | 6947 ft | 261 kts | 240° |
| 2026-04-25 22:41 | 51.56037 | -3.09131 | 6444 ft | 259 kts | 240° |
| 2026-04-25 22:41 | 51.55135 | -3.11615 | 5882 ft | 257 kts | 240° |
| 2026-04-25 22:41 | 51.54222 | -3.14066 | 5373 ft | 254 kts | 233° |
| 2026-04-25 22:42 | 51.52882 | -3.15821 | 4892 ft | 248 kts | 201° |
| 2026-04-25 22:42 | 51.51228 | -3.16341 | 4544 ft | 237 kts | 182° |
| 2026-04-25 22:42 | 51.49608 | -3.16459 | 4346 ft | 230 kts | 180° |
| 2026-04-25 22:42 | 51.48044 | -3.16535 | 4204 ft | 221 kts | 180° |
| 2026-04-25 22:43 | 51.46535 | -3.16601 | 4075 ft | 212 kts | 180° |
| 2026-04-25 22:43 | 51.45084 | -3.16663 | 3948 ft | 204 kts | 180° |
| 2026-04-25 22:43 | 51.43705 | -3.16720 | 3859 ft | 194 kts | 180° |
| 2026-04-25 22:43 | 51.42370 | -3.16776 | 3730 ft | 191 kts | 180° |
| 2026-04-25 22:44 | 51.41044 | -3.16832 | 3603 ft | 190 kts | 180° |
| 2026-04-25 22:44 | 51.39725 | -3.16841 | 3473 ft | 190 kts | 173° |
| 2026-04-25 22:44 | 51.38538 | -3.16032 | 3343 ft | 187 kts | 137° |
| 2026-04-25 22:44 | 51.37804 | -3.14328 | 3191 ft | 186 kts | 117° |
| 2026-04-25 22:45 | 51.37224 | -3.12487 | 3036 ft | 185 kts | 115° |
| 2026-04-25 22:45 | 51.36763 | -3.10585 | 2878 ft | 181 kts | 99° |
| 2026-04-25 22:45 | 51.36770 | -3.08628 | 2724 ft | 171 kts | 86° |
| 2026-04-25 22:45 | 51.36850 | -3.06760 | 2570 ft | 166 kts | 86° |
| 2026-04-25 22:46 | 51.36927 | -3.04930 | 2450 ft | 163 kts | 86° |
| 2026-04-25 22:46 | 51.37003 | -3.03119 | 2451 ft | 163 kts | 86° |
| 2026-04-25 22:46 | 51.37078 | -3.01333 | 2452 ft | 163 kts | 86° |
| 2026-04-25 22:46 | 51.37154 | -2.99501 | 2452 ft | 163 kts | 86° |
| 2026-04-25 22:47 | 51.37229 | -2.97690 | 2453 ft | 163 kts | 87° |
| 2026-04-25 22:47 | 51.37303 | -2.95912 | 2451 ft | 163 kts | 86° |
| 2026-04-25 22:47 | 51.37378 | -2.94085 | 2452 ft | 163 kts | 87° |
| 2026-04-25 22:47 | 51.37452 | -2.92279 | 2452 ft | 163 kts | 86° |
| 2026-04-25 22:48 | 51.37525 | -2.90482 | 2460 ft | 156 kts | 87° |
| 2026-04-25 22:48 | 51.37593 | -2.88817 | 2434 ft | 146 kts | 87° |
| 2026-04-25 22:48 | 51.37657 | -2.87225 | 2316 ft | 141 kts | 87° |
| 2026-04-25 22:48 | 51.37719 | -2.85702 | 2166 ft | 138 kts | 86° |
| 2026-04-25 22:49 | 51.37780 | -2.84183 | 1996 ft | 136 kts | 86° |
| 2026-04-25 22:49 | 51.37840 | -2.82681 | 1815 ft | 135 kts | 86° |
| 2026-04-25 22:49 | 51.37900 | -2.81178 | 1639 ft | 135 kts | 87° |
| 2026-04-25 22:49 | 51.37960 | -2.79681 | 1454 ft | 135 kts | 87° |
| 2026-04-25 22:50 | 51.38019 | -2.78177 | 1273 ft | 136 kts | 88° |
| 2026-04-25 22:50 | 51.38081 | -2.76669 | 1031 ft | 134 kts | 87° |
| 2026-04-25 22:50 | 51.38141 | -2.75162 | 874 ft | 135 kts | 87° |
| 2026-04-25 22:50 | 51.38199 | -2.73652 | 720 ft | 136 kts | 88° |
| 2026-04-25 22:51 | 51.38256 | -2.72192 | 624 ft | 119 kts | 86° |
| 2026-04-25 22:51 | 51.38294 | -2.71232 | 604 ft | 49 kts | 86° |
| 2026-04-25 22:51 | 51.38309 | -2.70862 | 607 ft | 19 kts | 86° |
| 2026-04-25 22:51 | 51.38380 | -2.70742 | 615 ft | 14 kts | 21° |
| 2026-04-25 22:52 | 51.38465 | -2.70734 | 611 ft | 10 kts | 307° |
| 2026-04-25 22:52 | 51.38471 | -2.70814 | 612 ft | 3 kts | 267° |
| 2026-04-25 22:52 | 51.38471 | -2.70827 | 613 ft | 0 kts | 267° |
| 2026-04-25 22:53 | 51.38470 | -2.70831 | 613 ft | 0 kts | 264° |
| 2026-04-25 22:53 | 51.38467 | -2.70890 | 620 ft | 8 kts | 265° |
| 2026-04-25 22:53 | 51.38462 | -2.70983 | 615 ft | 9 kts | 268° |
| 2026-04-25 22:53 | 51.38460 | -2.71085 | 615 ft | 9 kts | 268° |
| 2026-04-25 22:54 | 51.38456 | -2.71192 | 615 ft | 10 kts | 265° |
| 2026-04-25 22:54 | 51.38452 | -2.71276 | 623 ft | 7 kts | 266° |
| 2026-04-25 22:54 | 51.38449 | -2.71377 | 614 ft | 11 kts | 276° |
| 2026-04-25 22:54 | 51.38505 | -2.71412 | 613 ft | 6 kts | 358° |
| 2026-04-25 22:55 | 51.38527 | -2.71414 | 613 ft | 2 kts | 357° |
| 2026-04-25 22:55 | 51.38539 | -2.71415 | 613 ft | 1 kts | 358° |
| 2026-04-25 22:55 | 51.38542 | -2.71415 | 613 ft | 0 kts | 356° |